sensor_id;sensor_type;location;lat;lon;timestamp;pressure;altitude;pressure_sealevel;temperature;humidity
42385;BME280;28042;43.986;22.860;2022-11-20T00:00:43;100685.00;;;8.81;100.00
42385;BME280;28042;43.986;22.860;2022-11-20T00:03:09;100683.78;;;8.84;100.00
42385;BME280;28042;43.986;22.860;2022-11-20T00:05:34;100716.72;;;8.89;100.00
42385;BME280;28042;43.986;22.860;2022-11-20T00:08:00;100722.50;;;8.86;100.00
42385;BME280;28042;43.986;22.860;2022-11-20T00:10:25;100725.91;;;8.88;100.00
42385;BME280;28042;43.986;22.860;2022-11-20T00:12:51;100689.22;;;8.69;100.00
42385;BME280;28042;43.986;22.860;2022-11-20T00:15:17;100708.44;;;8.82;100.00
42385;BME280;28042;43.986;22.860;2022-11-20T00:17:42;100688.34;;;8.68;100.00
42385;BME280;28042;43.986;22.860;2022-11-20T00:20:08;100736.13;;;8.86;100.00
42385;BME280;28042;43.986;22.860;2022-11-20T00:22:34;100729.59;;;8.57;100.00
42385;BME280;28042;43.986;22.860;2022-11-20T00:25:00;100732.88;;;8.53;100.00
42385;BME280;28042;43.986;22.860;2022-11-20T00:27:25;100783.97;;;8.80;100.00
42385;BME280;28042;43.986;22.860;2022-11-20T00:29:51;100788.56;;;8.80;100.00
42385;BME280;28042;43.986;22.860;2022-11-20T00:32:16;100743.75;;;8.53;100.00
42385;BME280;28042;43.986;22.860;2022-11-20T00:34:42;100767.16;;;8.76;100.00
42385;BME280;28042;43.986;22.860;2022-11-20T00:37:07;100776.06;;;8.85;100.00
42385;BME280;28042;43.986;22.860;2022-11-20T00:39:33;100723.44;;;8.63;100.00
42385;BME280;28042;43.986;22.860;2022-11-20T00:41:58;100740.22;;;8.67;100.00
42385;BME280;28042;43.986;22.860;2022-11-20T00:44:23;100777.03;;;8.92;100.00
42385;BME280;28042;43.986;22.860;2022-11-20T00:46:49;100790.09;;;8.97;100.00
42385;BME280;28042;43.986;22.860;2022-11-20T00:49:14;100752.44;;;8.71;100.00
42385;BME280;28042;43.986;22.860;2022-11-20T00:51:40;100746.72;;;8.81;100.00
42385;BME280;28042;43.986;22.860;2022-11-20T00:54:05;100721.28;;;8.73;100.00
42385;BME280;28042;43.986;22.860;2022-11-20T00:56:31;100717.53;;;8.74;100.00
42385;BME280;28042;43.986;22.860;2022-11-20T00:58:59;100769.44;;;9.02;100.00
42385;BME280;28042;43.986;22.860;2022-11-20T01:01:25;100753.78;;;8.90;100.00
42385;BME280;28042;43.986;22.860;2022-11-20T01:03:53;100726.19;;;8.78;100.00
42385;BME280;28042;43.986;22.860;2022-11-20T01:06:20;100770.19;;;9.11;100.00
42385;BME280;28042;43.986;22.860;2022-11-20T01:08:48;100767.47;;;9.11;100.00
42385;BME280;28042;43.986;22.860;2022-11-20T01:11:16;100774.34;;;9.07;100.00
42385;BME280;28042;43.986;22.860;2022-11-20T01:13:43;100715.19;;;8.71;100.00
42385;BME280;28042;43.986;22.860;2022-11-20T01:16:10;100774.34;;;9.07;100.00
42385;BME280;28042;43.986;22.860;2022-11-20T01:18:36;100773.50;;;9.06;100.00
42385;BME280;28042;43.986;22.860;2022-11-20T01:21:11;100766.91;;;9.01;100.00
42385;BME280;28042;43.986;22.860;2022-11-20T01:23:39;100735.53;;;8.75;100.00
42385;BME280;28042;43.986;22.860;2022-11-20T01:26:09;100751.34;;;8.95;100.00
42385;BME280;28042;43.986;22.860;2022-11-20T01:28:35;100700.94;;;8.69;100.00
42385;BME280;28042;43.986;22.860;2022-11-20T01:31:01;100745.78;;;9.03;100.00
42385;BME280;28042;43.986;22.860;2022-11-20T01:33:27;100693.44;;;8.71;100.00
42385;BME280;28042;43.986;22.860;2022-11-20T01:35:53;100740.16;;;8.90;100.00
42385;BME280;28042;43.986;22.860;2022-11-20T01:38:19;100739.50;;;9.02;100.00
42385;BME280;28042;43.986;22.860;2022-11-20T01:40:53;100719.13;;;8.84;100.00
42385;BME280;28042;43.986;22.860;2022-11-20T01:43:20;100719.06;;;8.92;100.00
42385;BME280;28042;43.986;22.860;2022-11-20T01:48:46;100733.03;;;8.89;100.00
42385;BME280;28042;43.986;22.860;2022-11-20T01:53:55;100686.19;;;8.49;100.00
42385;BME280;28042;43.986;22.860;2022-11-20T01:56:23;100729.06;;;8.76;100.00
42385;BME280;28042;43.986;22.860;2022-11-20T01:58:54;100671.63;;;8.42;100.00
42385;BME280;28042;43.986;22.860;2022-11-20T02:01:22;100665.72;;;8.38;100.00
42385;BME280;28042;43.986;22.860;2022-11-20T02:03:48;100697.34;;;8.54;100.00
42385;BME280;28042;43.986;22.860;2022-11-20T02:06:20;100677.44;;;8.39;100.00
42385;BME280;28042;43.986;22.860;2022-11-20T02:08:48;100697.13;;;8.41;100.00
42385;BME280;28042;43.986;22.860;2022-11-20T02:11:13;100737.31;;;8.68;100.00
42385;BME280;28042;43.986;22.860;2022-11-20T02:13:39;100697.50;;;8.38;100.00
42385;BME280;28042;43.986;22.860;2022-11-20T02:16:12;100765.25;;;8.62;100.00
42385;BME280;28042;43.986;22.860;2022-11-20T02:18:39;100795.94;;;8.71;100.00
42385;BME280;28042;43.986;22.860;2022-11-20T02:21:12;100725.72;;;8.37;100.00
42385;BME280;28042;43.986;22.860;2022-11-20T02:26:17;100706.06;;;8.27;100.00
42385;BME280;28042;43.986;22.860;2022-11-20T02:28:44;100713.00;;;8.29;100.00
42385;BME280;28042;43.986;22.860;2022-11-20T02:31:10;100775.81;;;8.57;100.00
42385;BME280;28042;43.986;22.860;2022-11-20T02:33:35;100780.41;;;8.57;100.00
42385;BME280;28042;43.986;22.860;2022-11-20T02:36:01;100778.31;;;8.44;100.00
42385;BME280;28042;43.986;22.860;2022-11-20T02:38:26;100761.00;;;8.45;100.00
42385;BME280;28042;43.986;22.860;2022-11-20T02:40:52;100735.66;;;8.21;100.00
42385;BME280;28042;43.986;22.860;2022-11-20T02:43:17;100788.28;;;8.52;100.00
42385;BME280;28042;43.986;22.860;2022-11-20T02:45:43;100799.31;;;8.50;100.00
42385;BME280;28042;43.986;22.860;2022-11-20T02:48:08;100742.78;;;8.22;100.00
42385;BME280;28042;43.986;22.860;2022-11-20T02:50:37;100730.59;;;8.18;100.00
42385;BME280;28042;43.986;22.860;2022-11-20T02:53:02;100759.38;;;8.36;100.00
42385;BME280;28042;43.986;22.860;2022-11-20T02:55:28;100736.03;;;8.18;100.00
42385;BME280;28042;43.986;22.860;2022-11-20T02:57:53;100781.19;;;8.42;100.00
42385;BME280;28042;43.986;22.860;2022-11-20T03:00:19;100749.56;;;8.27;100.00
42385;BME280;28042;43.986;22.860;2022-11-20T03:02:44;100761.72;;;8.31;100.00
42385;BME280;28042;43.986;22.860;2022-11-20T03:05:10;100805.13;;;8.47;100.00
42385;BME280;28042;43.986;22.860;2022-11-20T03:07:35;100774.00;;;8.35;100.00
42385;BME280;28042;43.986;22.860;2022-11-20T03:10:01;100783.06;;;8.42;100.00
42385;BME280;28042;43.986;22.860;2022-11-20T03:12:26;100758.63;;;8.42;100.00
42385;BME280;28042;43.986;22.860;2022-11-20T03:14:52;100739.78;;;8.17;100.00
42385;BME280;28042;43.986;22.860;2022-11-20T03:17:17;100755.56;;;8.14;100.00
42385;BME280;28042;43.986;22.860;2022-11-20T03:19:43;100814.25;;;8.54;100.00
42385;BME280;28042;43.986;22.860;2022-11-20T03:22:08;100750.94;;;8.22;100.00
42385;BME280;28042;43.986;22.860;2022-11-20T03:24:34;100800.13;;;8.36;100.00
42385;BME280;28042;43.986;22.860;2022-11-20T03:26:59;100816.72;;;8.41;100.00
42385;BME280;28042;43.986;22.860;2022-11-20T03:29:25;100762.44;;;8.25;100.00
42385;BME280;28042;43.986;22.860;2022-11-20T03:31:50;100807.53;;;8.42;100.00
42385;BME280;28042;43.986;22.860;2022-11-20T03:34:16;100809.34;;;8.49;100.00
42385;BME280;28042;43.986;22.860;2022-11-20T03:36:43;100823.25;;;8.55;100.00
42385;BME280;28042;43.986;22.860;2022-11-20T03:39:09;100783.97;;;8.34;100.00
42385;BME280;28042;43.986;22.860;2022-11-20T03:41:40;100817.94;;;8.61;100.00
42385;BME280;28042;43.986;22.860;2022-11-20T03:44:07;100816.53;;;8.65;100.00
42385;BME280;28042;43.986;22.860;2022-11-20T03:46:34;100792.69;;;8.53;100.00
42385;BME280;28042;43.986;22.860;2022-11-20T03:48:59;100790.50;;;8.48;100.00
42385;BME280;28042;43.986;22.860;2022-11-20T03:51:27;100776.84;;;8.56;100.00
42385;BME280;28042;43.986;22.860;2022-11-20T03:53:55;100775.38;;;8.68;100.00
42385;BME280;28042;43.986;22.860;2022-11-20T03:56:26;100790.25;;;8.81;100.00
42385;BME280;28042;43.986;22.860;2022-11-20T03:58:52;100791.94;;;8.82;100.00
42385;BME280;28042;43.986;22.860;2022-11-20T04:01:23;100729.03;;;8.47;100.00
42385;BME280;28042;43.986;22.860;2022-11-20T04:03:51;100741.13;;;8.59;100.00
42385;BME280;28042;43.986;22.860;2022-11-20T04:06:20;100745.06;;;8.57;100.00
42385;BME280;28042;43.986;22.860;2022-11-20T04:08:46;100798.31;;;8.89;100.00
42385;BME280;28042;43.986;22.860;2022-11-20T04:11:13;100799.28;;;8.96;100.00
42385;BME280;28042;43.986;22.860;2022-11-20T04:13:40;100759.56;;;8.72;100.00
42385;BME280;28042;43.986;22.860;2022-11-20T04:16:07;100787.06;;;8.92;100.00
42385;BME280;28042;43.986;22.860;2022-11-20T04:18:33;100771.66;;;8.84;100.00
42385;BME280;28042;43.986;22.860;2022-11-20T04:20:59;100793.84;;;8.96;100.00
42385;BME280;28042;43.986;22.860;2022-11-20T04:23:25;100769.16;;;8.97;100.00
42385;BME280;28042;43.986;22.860;2022-11-20T04:25:50;100729.84;;;8.70;100.00
42385;BME280;28042;43.986;22.860;2022-11-20T04:28:16;100778.25;;;8.90;100.00
42385;BME280;28042;43.986;22.860;2022-11-20T04:30:41;100789.13;;;8.90;100.00
42385;BME280;28042;43.986;22.860;2022-11-20T04:33:07;100756.75;;;8.80;100.00
42385;BME280;28042;43.986;22.860;2022-11-20T04:35:37;100734.59;;;8.68;100.00
42385;BME280;28042;43.986;22.860;2022-11-20T04:38:03;100716.50;;;8.61;100.00
42385;BME280;28042;43.986;22.860;2022-11-20T04:40:29;100742.41;;;8.71;100.00
42385;BME280;28042;43.986;22.860;2022-11-20T04:42:55;100786.09;;;8.85;100.00
42385;BME280;28042;43.986;22.860;2022-11-20T04:45:21;100744.59;;;8.53;100.00
42385;BME280;28042;43.986;22.860;2022-11-20T04:47:47;100738.41;;;8.59;100.00
42385;BME280;28042;43.986;22.860;2022-11-20T04:50:12;100710.66;;;8.49;100.00
42385;BME280;28042;43.986;22.860;2022-11-20T04:52:38;100771.59;;;8.77;100.00
42385;BME280;28042;43.986;22.860;2022-11-20T04:55:04;100720.59;;;8.57;100.00
42385;BME280;28042;43.986;22.860;2022-11-20T04:57:29;100771.84;;;8.83;100.00
42385;BME280;28042;43.986;22.860;2022-11-20T04:59:55;100759.94;;;8.84;100.00
42385;BME280;28042;43.986;22.860;2022-11-20T05:02:21;100759.22;;;8.90;100.00
42385;BME280;28042;43.986;22.860;2022-11-20T05:04:46;100711.53;;;8.64;100.00
42385;BME280;28042;43.986;22.860;2022-11-20T05:07:12;100751.78;;;8.84;100.00
42385;BME280;28042;43.986;22.860;2022-11-20T05:09:37;100759.94;;;8.84;100.00
42385;BME280;28042;43.986;22.860;2022-11-20T05:12:03;100760.59;;;8.86;100.00
42385;BME280;28042;43.986;22.860;2022-11-20T05:14:29;100717.69;;;8.58;100.00
42385;BME280;28042;43.986;22.860;2022-11-20T05:16:54;100734.34;;;8.78;100.00
42385;BME280;28042;43.986;22.860;2022-11-20T05:19:20;100730.69;;;8.71;100.00
42385;BME280;28042;43.986;22.860;2022-11-20T05:21:45;100775.03;;;8.71;100.00
42385;BME280;28042;43.986;22.860;2022-11-20T05:24:11;100687.94;;;8.42;100.00
42385;BME280;28042;43.986;22.860;2022-11-20T05:26:37;100711.31;;;8.51;100.00
42385;BME280;28042;43.986;22.860;2022-11-20T05:29:02;100649.44;;;8.38;100.00
42385;BME280;28042;43.986;22.860;2022-11-20T05:31:28;100671.84;;;8.55;100.00
42385;BME280;28042;43.986;22.860;2022-11-20T05:33:54;100630.91;;;8.34;100.00
42385;BME280;28042;43.986;22.860;2022-11-20T05:36:20;100670.97;;;8.40;100.00
42385;BME280;28042;43.986;22.860;2022-11-20T05:38:46;100681.41;;;8.51;100.00
42385;BME280;28042;43.986;22.860;2022-11-20T05:41:14;100683.13;;;8.52;100.00
42385;BME280;28042;43.986;22.860;2022-11-20T05:43:42;100704.66;;;8.54;100.00
42385;BME280;28042;43.986;22.860;2022-11-20T05:46:10;100655.53;;;8.17;100.00
42385;BME280;28042;43.986;22.860;2022-11-20T05:48:37;100712.72;;;8.47;100.00
42385;BME280;28042;43.986;22.860;2022-11-20T05:51:06;100701.19;;;8.45;100.00
42385;BME280;28042;43.986;22.860;2022-11-20T05:53:33;100660.22;;;8.23;100.00
42385;BME280;28042;43.986;22.860;2022-11-20T05:56:07;100714.41;;;8.48;100.00
42385;BME280;28042;43.986;22.860;2022-11-20T05:58:36;100716.16;;;8.41;100.00
42385;BME280;28042;43.986;22.860;2022-11-20T06:01:05;100729.31;;;8.52;100.00
42385;BME280;28042;43.986;22.860;2022-11-20T06:03:31;100719.09;;;8.54;100.00
42385;BME280;28042;43.986;22.860;2022-11-20T06:05:59;100679.56;;;8.29;100.00
42385;BME280;28042;43.986;22.860;2022-11-20T06:08:24;100740.47;;;8.57;100.00
42385;BME280;28042;43.986;22.860;2022-11-20T06:10:50;100682.28;;;8.29;100.00
42385;BME280;28042;43.986;22.860;2022-11-20T06:13:15;100665.38;;;8.18;100.00
42385;BME280;28042;43.986;22.860;2022-11-20T06:15:41;100728.94;;;8.55;100.00
42385;BME280;28042;43.986;22.860;2022-11-20T06:18:06;100700.16;;;8.46;100.00
42385;BME280;28042;43.986;22.860;2022-11-20T06:20:31;100718.38;;;8.60;100.00
42385;BME280;28042;43.986;22.860;2022-11-20T06:22:57;100669.59;;;8.21;100.00
42385;BME280;28042;43.986;22.860;2022-11-20T06:25:22;100658.72;;;8.21;100.00
42385;BME280;28042;43.986;22.860;2022-11-20T06:27:48;100648.31;;;8.25;100.00
42385;BME280;28042;43.986;22.860;2022-11-20T06:30:14;100657.16;;;8.27;100.00
42385;BME280;28042;43.986;22.860;2022-11-20T06:32:39;100699.50;;;8.59;100.00
42385;BME280;28042;43.986;22.860;2022-11-20T06:35:05;100697.94;;;8.64;100.00
42385;BME280;28042;43.986;22.860;2022-11-20T06:37:30;100691.53;;;8.57;100.00
42385;BME280;28042;43.986;22.860;2022-11-20T06:39:56;100683.03;;;8.60;100.00
42385;BME280;28042;43.986;22.860;2022-11-20T06:42:21;100641.72;;;8.42;100.00
42385;BME280;28042;43.986;22.860;2022-11-20T06:44:47;100647.09;;;8.35;100.00
42385;BME280;28042;43.986;22.860;2022-11-20T06:47:12;100658.03;;;8.42;100.00
42385;BME280;28042;43.986;22.860;2022-11-20T06:49:37;100714.34;;;8.71;100.00
42385;BME280;28042;43.986;22.860;2022-11-20T06:52:04;100713.72;;;8.69;100.00
42385;BME280;28042;43.986;22.860;2022-11-20T06:54:29;100713.03;;;8.67;100.00
42385;BME280;28042;43.986;22.860;2022-11-20T06:56:55;100699.16;;;8.62;100.00
42385;BME280;28042;43.986;22.860;2022-11-20T06:59:20;100696.63;;;8.60;100.00
42385;BME280;28042;43.986;22.860;2022-11-20T07:01:46;100704.03;;;8.66;100.00
42385;BME280;28042;43.986;22.860;2022-11-20T07:04:12;100655.69;;;8.39;100.00
42385;BME280;28042;43.986;22.860;2022-11-20T07:06:37;100657.38;;;8.40;100.00
42385;BME280;28042;43.986;22.860;2022-11-20T07:09:03;100702.63;;;8.70;100.00
42385;BME280;28042;43.986;22.860;2022-11-20T07:11:28;100721.09;;;8.75;100.00
42385;BME280;28042;43.986;22.860;2022-11-20T07:13:54;100674.66;;;8.47;100.00
42385;BME280;28042;43.986;22.860;2022-11-20T07:16:19;100686.47;;;8.54;100.00
42385;BME280;28042;43.986;22.860;2022-11-20T07:18:44;100717.72;;;8.73;100.00
42385;BME280;28042;43.986;22.860;2022-11-20T07:21:10;100734.88;;;8.73;100.00
42385;BME280;28042;43.986;22.860;2022-11-20T07:23:36;100708.22;;;8.54;100.00
42385;BME280;28042;43.986;22.860;2022-11-20T07:26:10;100717.41;;;8.53;100.00
42385;BME280;28042;43.986;22.860;2022-11-20T07:28:36;100735.03;;;8.57;100.00
42385;BME280;28042;43.986;22.860;2022-11-20T07:31:02;100744.81;;;8.66;100.00
42385;BME280;28042;43.986;22.860;2022-11-20T07:33:28;100786.34;;;8.98;100.00
42385;BME280;28042;43.986;22.860;2022-11-20T07:35:53;100750.47;;;8.80;100.00
42385;BME280;28042;43.986;22.860;2022-11-20T07:38:19;100742.31;;;8.80;100.00
42385;BME280;28042;43.986;22.860;2022-11-20T07:40:45;100787.28;;;9.05;100.00
42385;BME280;28042;43.986;22.860;2022-11-20T07:43:10;100731.63;;;8.78;100.00
42385;BME280;28042;43.986;22.860;2022-11-20T07:45:36;100743.34;;;8.78;100.00
42385;BME280;28042;43.986;22.860;2022-11-20T07:48:02;100774.72;;;9.04;100.00
42385;BME280;28042;43.986;22.860;2022-11-20T07:50:27;100717.06;;;8.71;100.00
42385;BME280;28042;43.986;22.860;2022-11-20T07:53:01;100721.09;;;8.75;100.00
42385;BME280;28042;43.986;22.860;2022-11-20T07:55:27;100746.66;;;8.89;100.00
42385;BME280;28042;43.986;22.860;2022-11-20T07:57:56;100773.28;;;8.93;100.00
42385;BME280;28042;43.986;22.860;2022-11-20T08:00:25;100772.53;;;8.99;100.00
42385;BME280;28042;43.986;22.860;2022-11-20T08:02:51;100769.63;;;9.01;100.00
42385;BME280;28042;43.986;22.860;2022-11-20T08:05:17;100774.13;;;8.94;100.00
42385;BME280;28042;43.986;22.860;2022-11-20T08:07:43;100720.06;;;8.61;100.00
42385;BME280;28042;43.986;22.860;2022-11-20T08:10:11;100746.06;;;8.93;100.00
42385;BME280;28042;43.986;22.860;2022-11-20T08:12:47;100742.59;;;8.85;100.00
42385;BME280;28042;43.986;22.860;2022-11-20T08:15:31;100734.16;;;8.80;100.00
42385;BME280;28042;43.986;22.860;2022-11-20T08:18:05;100751.13;;;8.82;100.00
42385;BME280;28042;43.986;22.860;2022-11-20T08:20:32;100737.91;;;8.78;100.00
42385;BME280;28042;43.986;22.860;2022-11-20T08:23:02;100750.81;;;8.76;100.00
42385;BME280;28042;43.986;22.860;2022-11-20T08:25:29;100749.13;;;8.75;100.00
42385;BME280;28042;43.986;22.860;2022-11-20T08:27:59;100744.66;;;8.83;100.00
42385;BME280;28042;43.986;22.860;2022-11-20T08:30:25;100727.84;;;8.64;100.00
42385;BME280;28042;43.986;22.860;2022-11-20T08:32:50;100693.41;;;8.34;100.00
42385;BME280;28042;43.986;22.860;2022-11-20T08:35:16;100713.44;;;8.41;100.00
42385;BME280;28042;43.986;22.860;2022-11-20T08:37:41;100726.59;;;8.52;100.00
42385;BME280;28042;43.986;22.860;2022-11-20T08:40:11;100789.88;;;8.84;100.00
42385;BME280;28042;43.986;22.860;2022-11-20T08:42:36;100753.78;;;8.52;100.00
42385;BME280;28042;43.986;22.860;2022-11-20T08:45:02;100805.53;;;8.82;100.00
42385;BME280;28042;43.986;22.860;2022-11-20T08:47:28;100796.72;;;8.80;100.00
42385;BME280;28042;43.986;22.860;2022-11-20T08:49:53;100799.91;;;8.83;100.00
42385;BME280;28042;43.986;22.860;2022-11-20T08:52:19;100801.13;;;8.81;100.00
42385;BME280;28042;43.986;22.860;2022-11-20T08:54:44;100753.03;;;8.58;100.00
42385;BME280;28042;43.986;22.860;2022-11-20T08:57:10;100794.00;;;8.80;100.00
42385;BME280;28042;43.986;22.860;2022-11-20T08:59:35;100766.44;;;8.60;100.00
42385;BME280;28042;43.986;22.860;2022-11-20T09:02:01;100828.38;;;8.95;100.00
42385;BME280;28042;43.986;22.860;2022-11-20T09:04:26;100790.84;;;8.68;100.00
42385;BME280;28042;43.986;22.860;2022-11-20T09:06:51;100830.97;;;8.89;100.00
42385;BME280;28042;43.986;22.860;2022-11-20T09:09:17;100764.50;;;8.68;100.00
42385;BME280;28042;43.986;22.860;2022-11-20T09:11:44;100748.94;;;8.62;100.00
42385;BME280;28042;43.986;22.860;2022-11-20T09:14:09;100782.16;;;8.72;100.00
42385;BME280;28042;43.986;22.860;2022-11-20T09:16:35;100766.44;;;8.60;100.00
42385;BME280;28042;43.986;22.860;2022-11-20T09:19:00;100770.69;;;8.62;100.00
42385;BME280;28042;43.986;22.860;2022-11-20T09:21:26;100775.75;;;8.65;100.00
42385;BME280;28042;43.986;22.860;2022-11-20T09:23:51;100753.22;;;8.34;100.00
42385;BME280;28042;43.986;22.860;2022-11-20T09:26:16;100822.22;;;8.78;100.00
42385;BME280;28042;43.986;22.860;2022-11-20T09:28:42;100825.28;;;8.75;100.00
42385;BME280;28042;43.986;22.860;2022-11-20T09:31:11;100769.78;;;8.47;100.00
42385;BME280;28042;43.986;22.860;2022-11-20T09:33:39;100802.22;;;8.71;100.00
42385;BME280;28042;43.986;22.860;2022-11-20T09:36:05;100783.25;;;8.63;100.00
42385;BME280;28042;43.986;22.860;2022-11-20T09:38:30;100800.28;;;8.57;100.00
42385;BME280;28042;43.986;22.860;2022-11-20T09:41:03;100811.28;;;8.64;100.00
42385;BME280;28042;43.986;22.860;2022-11-20T09:46:29;100807.41;;;8.58;100.00
42385;BME280;28042;43.986;22.860;2022-11-20T09:54:17;100820.94;;;8.66;100.00
42385;BME280;28042;43.986;22.860;2022-11-20T09:56:48;100767.78;;;8.41;100.00
42385;BME280;28042;43.986;22.860;2022-11-20T09:59:32;100801.97;;;8.58;100.00
42385;BME280;28042;43.986;22.860;2022-11-20T10:01:59;100771.88;;;8.45;100.00
42385;BME280;28042;43.986;22.860;2022-11-20T10:04:29;100769.34;;;8.43;100.00
42385;BME280;28042;43.986;22.860;2022-11-20T10:07:07;100780.97;;;8.52;100.00
42385;BME280;28042;43.986;22.860;2022-11-20T10:09:40;100796.25;;;8.53;100.00
42385;BME280;28042;43.986;22.860;2022-11-20T10:12:35;100804.50;;;8.60;100.00
42385;BME280;28042;43.986;22.860;2022-11-20T10:18:19;100769.94;;;8.68;100.00
42385;BME280;28042;43.986;22.860;2022-11-20T10:20:47;100777.47;;;8.81;100.00
42385;BME280;28042;43.986;22.860;2022-11-20T10:26:06;100765.31;;;8.92;100.00
42385;BME280;28042;43.986;22.860;2022-11-20T10:31:44;100764.34;;;8.85;100.00
42385;BME280;28042;43.986;22.860;2022-11-20T10:34:33;100794.38;;;8.91;100.00
42385;BME280;28042;43.986;22.860;2022-11-20T10:37:16;100813.53;;;8.98;100.00
42385;BME280;28042;43.986;22.860;2022-11-20T10:42:16;100781.78;;;8.75;100.00
42385;BME280;28042;43.986;22.860;2022-11-20T10:44:48;100799.75;;;8.99;100.00
42385;BME280;28042;43.986;22.860;2022-11-20T10:47:30;100760.59;;;8.86;100.00
42385;BME280;28042;43.986;22.860;2022-11-20T10:50:02;100765.31;;;8.92;100.00
42385;BME280;28042;43.986;22.860;2022-11-20T11:00:46;100791.53;;;9.22;100.00
42385;BME280;28042;43.986;22.860;2022-11-20T11:03:31;100777.53;;;9.25;100.00
42385;BME280;28042;43.986;22.860;2022-11-20T11:08:41;100735.13;;;9.16;100.00
42385;BME280;28042;43.986;22.860;2022-11-20T11:13:42;100711.66;;;9.00;100.00
42385;BME280;28042;43.986;22.860;2022-11-20T11:16:20;100759.53;;;9.24;100.00
42385;BME280;28042;43.986;22.860;2022-11-20T11:18:46;100705.44;;;8.92;100.00
42385;BME280;28042;43.986;22.860;2022-11-20T11:21:11;100694.97;;;8.89;100.00
42385;BME280;28042;43.986;22.860;2022-11-20T11:23:37;100767.94;;;9.29;100.00
42385;BME280;28042;43.986;22.860;2022-11-20T11:26:06;100717.38;;;9.05;100.00
42385;BME280;28042;43.986;22.860;2022-11-20T11:28:32;100751.34;;;9.39;100.00
42385;BME280;28042;43.986;22.860;2022-11-20T11:30:58;100742.81;;;9.27;100.00
42385;BME280;28042;43.986;22.860;2022-11-20T11:33:26;100744.13;;;9.31;100.00
42385;BME280;28042;43.986;22.860;2022-11-20T11:35:55;100696.47;;;9.06;100.00
42385;BME280;28042;43.986;22.860;2022-11-20T11:38:38;100712.78;;;9.06;100.00
42385;BME280;28042;43.986;22.860;2022-11-20T11:41:08;100736.41;;;9.20;100.00
42385;BME280;28042;43.986;22.860;2022-11-20T11:43:36;100739.44;;;9.25;100.00
42385;BME280;28042;43.986;22.860;2022-11-20T11:46:30;100659.59;;;8.74;100.00
42385;BME280;28042;43.986;22.860;2022-11-20T11:48:58;100715.22;;;9.01;100.00
42385;BME280;28042;43.986;22.860;2022-11-20T11:51:34;100696.34;;;8.99;100.00
42385;BME280;28042;43.986;22.860;2022-11-20T11:54:08;100699.66;;;8.95;100.00
42385;BME280;28042;43.986;22.860;2022-11-20T11:56:36;100698.53;;;9.04;100.00
42385;BME280;28042;43.986;22.860;2022-11-20T11:59:04;100689.69;;;9.02;100.00
42385;BME280;28042;43.986;22.860;2022-11-20T12:01:44;100690.72;;;9.01;100.00
42385;BME280;28042;43.986;22.860;2022-11-20T12:04:42;100740.38;;;9.32;100.00
42385;BME280;28042;43.986;22.860;2022-11-20T12:07:39;100748.25;;;9.27;100.00
42385;BME280;28042;43.986;22.860;2022-11-20T12:10:15;100740.84;;;9.21;100.00
42385;BME280;28042;43.986;22.860;2022-11-20T12:12:48;100633.34;;;8.81;100.00
42385;BME280;28042;43.986;22.860;2022-11-20T12:15:26;100660.16;;;8.99;100.00
42385;BME280;28042;43.986;22.860;2022-11-20T12:17:52;100589.72;;;8.74;100.00
42385;BME280;28042;43.986;22.860;2022-11-20T12:20:17;100621.59;;;8.81;100.00
42385;BME280;28042;43.986;22.860;2022-11-20T12:22:53;100669.16;;;8.99;100.00
42385;BME280;28042;43.986;22.860;2022-11-20T12:25:28;100656.78;;;8.97;100.00
42385;BME280;28042;43.986;22.860;2022-11-20T12:31:27;100610.72;;;8.81;100.00
42385;BME280;28042;43.986;22.860;2022-11-20T12:39:36;100617.31;;;8.71;100.00
42385;BME280;28042;43.986;22.860;2022-11-20T12:53:37;100702.75;;;9.21;100.00
42385;BME280;28042;43.986;22.860;2022-11-20T13:07:02;100706.38;;;9.28;100.00
42385;BME280;28042;43.986;22.860;2022-11-20T13:09:31;100699.63;;;9.24;100.00
42385;BME280;28042;43.986;22.860;2022-11-20T13:14:58;100663.50;;;9.16;100.00
42385;BME280;28042;43.986;22.860;2022-11-20T13:17:36;100675.03;;;9.32;100.00
42385;BME280;28042;43.986;22.860;2022-11-20T13:20:06;100667.91;;;9.31;100.00
42385;BME280;28042;43.986;22.860;2022-11-20T13:22:47;100651.47;;;9.40;100.00
42385;BME280;28042;43.986;22.860;2022-11-20T13:25:30;100642.63;;;9.38;100.00
42385;BME280;28042;43.986;22.860;2022-11-20T13:27:58;100650.88;;;9.44;100.00
42385;BME280;28042;43.986;22.860;2022-11-20T13:30:28;100653.59;;;9.44;100.00
42385;BME280;28042;43.986;22.860;2022-11-20T13:35:55;100701.84;;;9.50;100.00
42385;BME280;28042;43.986;22.860;2022-11-20T13:38:21;100641.72;;;9.30;100.00
42385;BME280;28042;43.986;22.860;2022-11-20T13:46:00;100653.97;;;9.56;100.00
42385;BME280;28042;43.986;22.860;2022-11-20T13:48:30;100603.41;;;9.32;100.00
42385;BME280;28042;43.986;22.860;2022-11-20T13:59:07;100690.97;;;9.35;100.00
42385;BME280;28042;43.986;22.860;2022-11-20T14:01:33;100694.75;;;9.34;100.00
42385;BME280;28042;43.986;22.860;2022-11-20T14:04:08;100669.34;;;9.13;100.00
42385;BME280;28042;43.986;22.860;2022-11-20T14:06:41;100694.19;;;9.24;100.00
42385;BME280;28042;43.986;22.860;2022-11-20T14:09:12;100667.38;;;9.21;100.00
42385;BME280;28042;43.986;22.860;2022-11-20T14:11:45;100667.91;;;9.31;100.00
42385;BME280;28042;43.986;22.860;2022-11-20T14:14:25;100673.16;;;9.18;100.00
42385;BME280;28042;43.986;22.860;2022-11-20T14:16:52;100675.34;;;9.23;100.00